createdAt,value
2023-12-21T00:00:49.438Z,97900.56
2023-12-21T00:02:52.690Z,97900.56
2023-12-21T00:04:54.945Z,97905.66
2023-12-21T00:06:58.352Z,97902.88
2023-12-21T00:09:01.641Z,97906.31
2023-12-21T00:11:04.989Z,97897.06
2023-12-21T00:13:07.288Z,97907.81
2023-12-21T00:15:11.442Z,97906.91
2023-12-21T00:17:16.156Z,97898.09
2023-12-21T00:19:19.446Z,97887.91
2023-12-21T00:21:21.624Z,97881.88
2023-12-21T00:23:24.814Z,97873.28
2023-12-21T00:25:27.203Z,97873.13
2023-12-21T00:27:30.517Z,97874.13
2023-12-21T00:29:33.872Z,97870.88
2023-12-21T00:31:36.247Z,97887.81
2023-12-21T00:33:40.955Z,97888.66
2023-12-21T00:35:44.261Z,97887.16
2023-12-21T00:37:47.784Z,97885.13
2023-12-21T00:39:51.019Z,97892.72
2023-12-21T00:41:54.133Z,97889.13
2023-12-21T00:43:57.485Z,97882.09
2023-12-21T00:46:00.737Z,97877.53
2023-12-21T00:48:03.938Z,97867.84
2023-12-21T00:50:09.431Z,97870.59
2023-12-21T00:52:12.523Z,97876.97
2023-12-21T00:54:15.758Z,97876.78
2023-12-21T00:56:18.913Z,97874.47
2023-12-21T00:58:22.077Z,97863.44
2023-12-21T01:00:25.337Z,97863.44
2023-12-21T01:02:28.538Z,97859.91
2023-12-21T01:04:31.710Z,97850.50
2023-12-21T01:06:37.634Z,97843.53
2023-12-21T01:08:40.862Z,97845.41
2023-12-21T01:10:44.171Z,97846.88
2023-12-21T01:12:47.602Z,97841.50
2023-12-21T01:14:50.862Z,97836.81
2023-12-21T01:16:53.073Z,97822.00
2023-12-21T01:18:56.322Z,97819.50
2023-12-21T01:21:00.155Z,97817.91
2023-12-21T01:23:04.961Z,97809.59
2023-12-21T01:25:08.942Z,97812.81
2023-12-21T01:27:21.790Z,97804.88
2023-12-21T01:29:32.722Z,97805.72
2023-12-21T01:31:35.990Z,97801.19
2023-12-21T01:33:39.482Z,97798.69
2023-12-21T01:35:42.783Z,97801.34
2023-12-21T01:37:46.408Z,97792.00
2023-12-21T01:39:51.017Z,97788.75
2023-12-21T01:41:57.152Z,97791.53
2023-12-21T01:44:00.373Z,97793.28
2023-12-21T01:46:04.877Z,97780.88
2023-12-21T01:48:09.052Z,97785.25
2023-12-21T01:50:12.602Z,97783.66
2023-12-21T01:52:15.959Z,97773.84
2023-12-21T01:54:19.547Z,97753.38
2023-12-21T01:56:23.162Z,97754.25
2023-12-21T01:58:26.392Z,97749.53
2023-12-21T02:00:31.005Z,97750.16
2023-12-21T02:02:34.124Z,97744.34
2023-12-21T02:04:37.313Z,97742.00
2023-12-21T02:06:41.638Z,97739.97
2023-12-21T02:08:44.849Z,97739.50
2023-12-21T02:10:48.362Z,97740.16
2023-12-21T02:12:52.967Z,97718.88
2023-12-21T02:14:56.158Z,97720.38
2023-12-21T02:17:03.267Z,97716.91
2023-12-21T02:19:07.166Z,97716.09
2023-12-21T02:21:11.431Z,97715.81
2023-12-21T02:23:16.429Z,97717.19
2023-12-21T02:25:21.337Z,97710.19
2023-12-21T02:27:24.452Z,97698.13
2023-12-21T02:29:27.608Z,97700.19
2023-12-21T02:31:30.786Z,97693.31
2023-12-21T02:33:34.073Z,97677.56
2023-12-21T02:35:37.421Z,97676.47
2023-12-21T02:37:40.591Z,97685.16
2023-12-21T02:39:43.931Z,97665.56
2023-12-21T02:41:49.484Z,97679.25
2023-12-21T02:43:52.713Z,97674.06
2023-12-21T02:45:54.818Z,97675.72
2023-12-21T02:47:58.093Z,97665.16
2023-12-21T02:50:01.494Z,97662.56
2023-12-21T02:52:05.189Z,97666.94
2023-12-21T02:54:08.430Z,97659.16
2023-12-21T02:56:11.590Z,97645.91
2023-12-21T02:58:16.193Z,97648.03
2023-12-21T03:00:20.137Z,97640.06
2023-12-21T03:02:23.328Z,97634.41
2023-12-21T03:04:26.487Z,97625.03
2023-12-21T03:06:29.625Z,97620.13
2023-12-21T03:08:33.907Z,97609.56
2023-12-21T03:10:37.105Z,97607.75
2023-12-21T03:12:39.317Z,97610.34
2023-12-21T03:14:43.969Z,97600.78
2023-12-21T03:16:47.235Z,97605.16
2023-12-21T03:18:50.365Z,97601.69
2023-12-21T03:20:53.463Z,97603.28
2023-12-21T03:22:56.590Z,97595.31
2023-12-21T03:24:59.843Z,97598.00
2023-12-21T03:27:05.288Z,97599.56
2023-12-21T03:29:08.469Z,97598.63
2023-12-21T03:31:13.116Z,97592.72
2023-12-21T03:33:16.469Z,97593.72
2023-12-21T03:35:20.263Z,97595.00
2023-12-21T03:37:22.644Z,97595.31
2023-12-21T03:39:25.889Z,97588.34
2023-12-21T03:41:29.133Z,97575.09
2023-12-21T03:43:32.291Z,97572.59
2023-12-21T03:45:40.942Z,97576.13
2023-12-21T03:47:45.665Z,97568.56
2023-12-21T03:49:47.861Z,97588.16
2023-12-21T03:51:50.984Z,97567.31
2023-12-21T03:53:55.659Z,97575.28
2023-12-21T03:55:58.059Z,97580.28
2023-12-21T03:58:01.303Z,97569.19
2023-12-21T04:00:05.068Z,97565.59
2023-12-21T04:02:08.415Z,97571.81
2023-12-21T04:04:12.986Z,97561.97
2023-12-21T04:06:16.106Z,97564.56
2023-12-21T04:08:22.424Z,97566.53
2023-12-21T04:10:25.618Z,97570.97
2023-12-21T04:12:28.773Z,97562.06
2023-12-21T04:14:30.877Z,97554.41
2023-12-21T04:16:34.136Z,97546.53
2023-12-21T04:18:37.394Z,97546.81
2023-12-21T04:20:41.911Z,97538.94
2023-12-21T04:22:45.285Z,97533.75
2023-12-21T04:24:48.597Z,97523.56
2023-12-21T04:26:50.921Z,97516.91
2023-12-21T04:28:54.380Z,97529.69
2023-12-21T04:30:57.627Z,97526.88
2023-12-21T04:33:01.169Z,97532.84
2023-12-21T04:35:04.429Z,97517.81
2023-12-21T04:37:08.961Z,97511.03
2023-12-21T04:39:12.101Z,97515.41
2023-12-21T04:41:15.307Z,97513.09
2023-12-21T04:43:17.516Z,97513.00
2023-12-21T04:45:20.871Z,97508.53
2023-12-21T04:47:24.463Z,97518.81
2023-12-21T04:49:28.393Z,97517.38
2023-12-21T04:51:31.597Z,97521.69
2023-12-21T04:53:36.173Z,97517.56
2023-12-21T04:55:39.535Z,97504.50
2023-12-21T04:57:41.990Z,97498.47
2023-12-21T04:59:45.249Z,97487.28
2023-12-21T05:01:50.911Z,97476.91
2023-12-21T05:03:54.608Z,97475.22
2023-12-21T05:05:57.855Z,97479.59
2023-12-21T05:08:00.970Z,97481.06
2023-12-21T05:10:06.738Z,97487.28
2023-12-21T05:12:10.719Z,97487.47
2023-12-21T05:14:14.160Z,97495.16
2023-12-21T05:16:17.707Z,97490.50
2023-12-21T05:18:20.903Z,97481.06
2023-12-21T05:20:24.236Z,97485.50
2023-12-21T05:22:27.484Z,97499.03
2023-12-21T05:24:30.535Z,97488.09
2023-12-21T05:26:35.111Z,97487.19
2023-12-21T05:28:39.636Z,97481.69
2023-12-21T05:30:42.924Z,97476.50
2023-12-21T05:32:46.370Z,97460.94
2023-12-21T05:34:49.700Z,97460.13
2023-12-21T05:36:53.328Z,97449.56
2023-12-21T05:38:56.409Z,97454.53
2023-12-21T05:40:59.690Z,97446.00
2023-12-21T05:43:04.232Z,97463.25
2023-12-21T05:45:09.158Z,97463.97
2023-12-21T05:47:12.491Z,97449.97
2023-12-21T05:49:15.764Z,97453.28
2023-12-21T05:51:18.918Z,97449.69
2023-12-21T05:53:22.005Z,97448.22
2023-12-21T05:55:24.186Z,97455.06
2023-12-21T05:57:27.763Z,97442.91
2023-12-21T05:59:32.606Z,97446.97
2023-12-21T06:01:35.855Z,97431.31
2023-12-21T06:03:39.169Z,97432.13
2023-12-21T06:05:42.436Z,97425.94
2023-12-21T06:07:45.637Z,97424.34
2023-12-21T06:09:48.712Z,97426.75
2023-12-21T06:11:51.948Z,97423.22
2023-12-21T06:13:55.012Z,97414.69
2023-12-21T06:15:59.535Z,97417.84
2023-12-21T06:18:01.753Z,97404.88
2023-12-21T06:20:05.516Z,97403.81
2023-12-21T06:22:08.646Z,97394.38
2023-12-21T06:24:11.893Z,97383.16
2023-12-21T06:26:14.965Z,97375.50
2023-12-21T06:28:18.357Z,97373.63
2023-12-21T06:30:21.750Z,97382.13
2023-12-21T06:32:25.780Z,97372.59
2023-12-21T06:34:29.406Z,97364.69
2023-12-21T06:36:33.644Z,97362.09
2023-12-21T06:38:36.867Z,97368.44
2023-12-21T06:40:40.758Z,97364.91
2023-12-21T06:42:44.024Z,97362.84
2023-12-21T06:44:47.236Z,97350.59
2023-12-21T06:46:52.083Z,97355.78
2023-12-21T06:48:56.590Z,97351.41
2023-12-21T06:50:59.060Z,97357.56
2023-12-21T06:53:02.135Z,97358.28
2023-12-21T06:55:05.935Z,97365.25
2023-12-21T06:57:09.132Z,97357.25
2023-12-21T06:59:12.442Z,97355.25
2023-12-21T07:01:14.744Z,97349.25
2023-12-21T07:03:17.978Z,97351.84
2023-12-21T07:05:22.603Z,97353.38
2023-12-21T07:07:25.869Z,97338.56
2023-12-21T07:09:29.004Z,97343.63
2023-12-21T07:11:32.170Z,97344.56
2023-12-21T07:13:35.998Z,97336.78
2023-12-21T07:15:38.319Z,97331.50
2023-12-21T07:17:41.552Z,97342.38
2023-12-21T07:19:43.731Z,97337.28
2023-12-21T07:21:48.243Z,97332.09
2023-12-21T07:23:51.352Z,97328.38
2023-12-21T07:25:54.556Z,97324.59
2023-12-21T07:27:56.638Z,97324.38
2023-12-21T07:30:00.422Z,97324.59
2023-12-21T07:32:03.555Z,97323.47
2023-12-21T07:34:07.477Z,97321.69
2023-12-21T07:36:11.162Z,97310.38
2023-12-21T07:38:15.672Z,97303.19
2023-12-21T07:40:18.914Z,97290.97
2023-12-21T07:42:22.070Z,97298.00
2023-12-21T07:44:25.222Z,97299.06
2023-12-21T07:46:28.462Z,97292.81
2023-12-21T07:48:31.755Z,97298.97
2023-12-21T07:50:35.302Z,97290.84
2023-12-21T07:52:39.091Z,97296.44
2023-12-21T07:54:43.971Z,97291.22
2023-12-21T07:56:47.302Z,97285.22
2023-12-21T07:58:50.546Z,97284.16
2023-12-21T08:00:53.740Z,97278.75
2023-12-21T08:02:56.924Z,97264.94
2023-12-21T08:04:59.966Z,97280.75
2023-12-21T08:07:03.306Z,97281.56
2023-12-21T08:09:10.384Z,97284.78
2023-12-21T08:11:14.897Z,97283.00
2023-12-21T08:13:18.100Z,97287.28
2023-12-21T08:15:20.424Z,97268.03
2023-12-21T08:17:23.804Z,97274.06
2023-12-21T08:19:27.349Z,97267.44
2023-12-21T08:21:30.665Z,97270.75
2023-12-21T08:23:32.793Z,97273.22
2023-12-21T08:25:35.976Z,97273.34
2023-12-21T08:27:42.504Z,97260.34
2023-12-21T08:29:45.806Z,97263.91
2023-12-21T08:31:48.985Z,97255.28
2023-12-21T08:33:51.399Z,97255.91
2023-12-21T08:35:54.784Z,97272.00
2023-12-21T08:38:00.387Z,97269.28
2023-12-21T08:40:03.520Z,97261.16
2023-12-21T08:42:07.289Z,97255.13
2023-12-21T08:44:12.574Z,97266.16
2023-12-21T08:46:15.906Z,97252.41
2023-12-21T08:48:19.203Z,97262.69
2023-12-21T08:50:21.682Z,97262.38
2023-12-21T08:52:24.854Z,97262.38
2023-12-21T08:54:28.594Z,97237.25
2023-12-21T08:56:33.592Z,97238.88
2023-12-21T08:58:37.221Z,97228.25
2023-12-21T09:00:41.829Z,97237.03
2023-12-21T09:02:44.040Z,97219.44
2023-12-21T09:04:48.647Z,97223.06
2023-12-21T09:06:52.141Z,97227.00
2023-12-21T09:08:55.442Z,97221.81
2023-12-21T09:10:58.709Z,97213.19
2023-12-21T09:13:02.030Z,97206.44
2023-12-21T09:15:06.071Z,97191.09
2023-12-21T09:17:10.630Z,97194.28
2023-12-21T09:19:13.901Z,97192.53
2023-12-21T09:21:17.317Z,97187.34
2023-12-21T09:23:20.723Z,97191.78
2023-12-21T09:25:24.006Z,97169.75
2023-12-21T09:27:29.041Z,97154.50
2023-12-21T09:29:32.184Z,97163.84
2023-12-21T09:31:35.429Z,97176.47
2023-12-21T09:33:41.465Z,97188.50
2023-12-21T09:35:44.818Z,97189.25
2023-12-21T09:37:49.157Z,97186.44
2023-12-21T09:39:52.747Z,97166.22
2023-12-21T09:42:00.628Z,97163.75
2023-12-21T09:44:07.602Z,97150.63
2023-12-21T09:46:11.027Z,97140.47
2023-12-21T09:48:16.440Z,97138.00
2023-12-21T09:50:21.391Z,97128.41
2023-12-21T09:52:25.501Z,97129.25
2023-12-21T09:54:28.819Z,97122.16
2023-12-21T09:56:33.472Z,97127.13
2023-12-21T09:58:37.286Z,97121.00
2023-12-21T10:00:40.179Z,97122.41
2023-12-21T10:02:43.509Z,97124.31
2023-12-21T10:04:47.472Z,97126.69
2023-12-21T10:06:52.190Z,97116.16
2023-12-21T10:08:55.547Z,97118.19
2023-12-21T10:10:58.869Z,97104.34
2023-12-21T10:13:02.157Z,97092.53
2023-12-21T10:15:06.098Z,97076.59
2023-12-21T10:17:11.852Z,97073.06
2023-12-21T10:19:15.513Z,97066.19
2023-12-21T10:21:17.990Z,97052.50
2023-12-21T10:23:24.525Z,97046.44
2023-12-21T10:25:28.359Z,97048.94
2023-12-21T10:27:31.695Z,97040.78
2023-12-21T10:29:34.805Z,97039.25
2023-12-21T10:31:37.991Z,97029.56
2023-12-21T10:33:43.802Z,97015.63
2023-12-21T10:35:48.452Z,97007.81
2023-12-21T10:37:51.695Z,97012.06
2023-12-21T10:39:58.095Z,96998.34
2023-12-21T10:42:01.408Z,96990.41
2023-12-21T10:44:05.472Z,96967.88
2023-12-21T10:46:10.998Z,96961.69
2023-12-21T10:48:16.401Z,96956.50
2023-12-21T10:50:20.960Z,96948.00
2023-12-21T10:52:24.796Z,96955.81
2023-12-21T10:54:29.466Z,96941.59
2023-12-21T10:56:33.357Z,96940.78
2023-12-21T10:58:36.703Z,96941.59
2023-12-21T11:00:40.934Z,96937.81
2023-12-21T11:02:47.695Z,96924.34
2023-12-21T11:04:53.490Z,96925.88
2023-12-21T11:06:56.170Z,96919.84
2023-12-21T11:09:00.335Z,96910.13
2023-12-21T11:11:04.658Z,96894.75
2023-12-21T11:13:09.530Z,96877.06
2023-12-21T11:15:13.194Z,96881.41
2023-12-21T11:17:16.450Z,96868.53
2023-12-21T11:19:24.931Z,96861.47
2023-12-21T11:21:28.782Z,96853.78
2023-12-21T11:23:31.967Z,96843.00
2023-12-21T11:25:35.542Z,96847.94
2023-12-21T11:27:38.997Z,96846.97
2023-12-21T11:29:45.299Z,96860.47
2023-12-21T11:31:48.560Z,96847.56
2023-12-21T11:33:51.996Z,96835.13
2023-12-21T11:35:55.749Z,96833.59
2023-12-21T11:38:01.680Z,96828.03
2023-12-21T11:40:06.166Z,96832.28
2023-12-21T11:42:11.163Z,96821.88
2023-12-21T11:44:14.725Z,96818.47
2023-12-21T11:46:19.474Z,96816.69
2023-12-21T11:48:22.831Z,96815.59
2023-12-21T11:50:27.768Z,96792.84
2023-12-21T11:52:31.590Z,96791.88
2023-12-21T11:54:36.349Z,96781.19
2023-12-21T11:56:40.603Z,96768.72
2023-12-21T11:58:44.991Z,96775.00
2023-12-21T12:00:50.167Z,96767.78
2023-12-21T12:02:55.289Z,96759.53
2023-12-21T12:04:58.022Z,96759.28
2023-12-21T12:07:01.268Z,96745.31
2023-12-21T12:09:04.441Z,96732.31
2023-12-21T12:11:07.612Z,96733.97
2023-12-21T12:13:18.180Z,96710.56
2023-12-21T12:15:21.999Z,96731.63
2023-12-21T12:17:28.074Z,96721.22
2023-12-21T12:19:33.006Z,96712.22
2023-12-21T12:21:36.981Z,96708.22
2023-12-21T12:23:41.420Z,96703.69
2023-12-21T12:25:49.828Z,96704.41
2023-12-21T12:27:54.368Z,96704.69
2023-12-21T12:29:57.816Z,96704.69
2023-12-21T12:32:02.015Z,96700.28
2023-12-21T12:34:05.713Z,96700.41
2023-12-21T12:36:11.069Z,96697.56
2023-12-21T12:38:14.469Z,96702.50
2023-12-21T12:40:18.002Z,96691.41
2023-12-21T12:42:22.156Z,96690.69
2023-12-21T12:44:25.939Z,96683.75
2023-12-21T12:46:29.898Z,96697.28
2023-12-21T12:48:33.228Z,96683.34
2023-12-21T12:50:37.618Z,96696.78
2023-12-21T12:52:45.639Z,96685.84
2023-12-21T12:54:47.757Z,96688.44
2023-12-21T12:56:51.022Z,96692.56
2023-12-21T12:58:59.041Z,96694.78
2023-12-21T13:01:03.654Z,96697.69
2023-12-21T13:03:06.821Z,96683.16
2023-12-21T13:05:10.809Z,96686.63
2023-12-21T13:07:13.176Z,96696.38
2023-12-21T13:09:17.653Z,96690.22
2023-12-21T13:11:22.974Z,96692.28
2023-12-21T13:13:26.186Z,96689.56
2023-12-21T13:15:29.285Z,96685.16
2023-12-21T13:17:32.293Z,96692.69
2023-12-21T13:19:35.351Z,96688.03
2023-12-21T13:21:39.413Z,96686.09
2023-12-21T13:23:43.335Z,96690.63
2023-12-21T13:25:55.149Z,96687.63
2023-12-21T13:28:11.472Z,96688.31
2023-12-21T13:30:24.164Z,96677.63
2023-12-21T13:32:27.237Z,96674.06
2023-12-21T13:34:31.938Z,96686.78
2023-12-21T13:36:34.009Z,96675.44
2023-12-21T13:38:38.756Z,96678.72
2023-12-21T13:40:41.978Z,96667.63
2023-12-21T13:42:46.750Z,96662.13
2023-12-21T13:44:49.782Z,96662.94
2023-12-21T13:46:51.869Z,96657.47
2023-12-21T13:48:54.886Z,96657.06
2023-12-21T13:50:58.077Z,96658.59
2023-12-21T13:53:01.188Z,96647.22
2023-12-21T13:55:04.464Z,96641.88
2023-12-21T13:57:13.914Z,96655.63
2023-12-21T13:59:19.529Z,96663.84
2023-12-21T14:01:24.188Z,96649.88
2023-12-21T14:03:27.292Z,96653.28
2023-12-21T14:05:30.599Z,96657.81
2023-12-21T14:07:33.904Z,96658.34
2023-12-21T14:09:38.856Z,96653.41
2023-12-21T14:11:42.092Z,96654.66
2023-12-21T14:13:45.132Z,96656.19
2023-12-21T14:15:49.560Z,96647.13
2023-12-21T14:17:52.609Z,96646.72
2023-12-21T14:19:54.815Z,96649.59
2023-12-21T14:21:57.841Z,96639.19
2023-12-21T14:24:00.924Z,96635.75
2023-12-21T14:26:04.693Z,96631.75
2023-12-21T14:28:07.749Z,96630.13
2023-12-21T14:30:10.516Z,96630.28
2023-12-21T14:32:17.272Z,96618.88
2023-12-21T14:34:21.698Z,96619.84
2023-12-21T14:36:24.714Z,96619.72
2023-12-21T14:38:31.444Z,96611.19
2023-12-21T14:40:34.400Z,96608.34
2023-12-21T14:42:39.385Z,96604.38
2023-12-21T14:44:42.449Z,96593.41
2023-12-21T14:46:45.521Z,96596.28
2023-12-21T14:48:50.006Z,96580.09
2023-12-21T14:50:52.106Z,96594.63
2023-12-21T14:52:55.435Z,96588.59
2023-12-21T14:54:58.654Z,96584.09
2023-12-21T14:57:02.313Z,96582.44
2023-12-21T14:59:05.536Z,96581.03
2023-12-21T15:01:08.943Z,96570.34
2023-12-21T15:03:11.710Z,96572.28
2023-12-21T15:05:19.401Z,96584.09
2023-12-21T15:07:22.457Z,96590.63
2023-12-21T15:09:25.691Z,96587.91
2023-12-21T15:11:28.648Z,96581.47
2023-12-21T15:13:32.654Z,96572.69
2023-12-21T15:15:35.761Z,96579.78
2023-12-21T15:17:39.081Z,96592.69
2023-12-21T15:19:42.223Z,96583.78
2023-12-21T15:21:47.327Z,96571.28
2023-12-21T15:23:50.390Z,96581.69
2023-12-21T15:25:53.472Z,96581.84
2023-12-21T15:27:56.744Z,96583.22
2023-12-21T15:30:00.524Z,96568.13
2023-12-21T15:32:03.629Z,96562.91
2023-12-21T15:34:06.839Z,96567.31
2023-12-21T15:36:11.926Z,96572.50
2023-12-21T15:38:16.533Z,96566.34
2023-12-21T15:40:19.925Z,96545.38
2023-12-21T15:42:22.444Z,96544.00
2023-12-21T15:44:25.984Z,96552.22
2023-12-21T15:46:29.095Z,96552.22
2023-12-21T15:48:33.332Z,96544.69
2023-12-21T15:50:36.641Z,96544.69
2023-12-21T15:52:38.668Z,96553.59
2023-12-21T15:54:43.068Z,96543.31
2023-12-21T15:56:49.134Z,96546.63
2023-12-21T15:58:51.467Z,96529.34
2023-12-21T16:00:57.521Z,96527.81
2023-12-21T16:03:00.582Z,96518.81
2023-12-21T16:05:03.681Z,96516.06
2023-12-21T16:07:06.916Z,96520.19
2023-12-21T16:09:11.000Z,96506.75
2023-12-21T16:11:15.546Z,96502.22
2023-12-21T16:13:17.933Z,96507.44
2023-12-21T16:15:20.958Z,96511.66
2023-12-21T16:17:23.977Z,96521.81
2023-12-21T16:19:27.083Z,96519.88
2023-12-21T16:21:30.137Z,96527.28
2023-12-21T16:23:33.114Z,96524.53
2023-12-21T16:25:35.225Z,96532.19
2023-12-21T16:27:39.615Z,96516.28
2023-12-21T16:29:42.872Z,96526.19
2023-12-21T16:31:45.940Z,96530.16
2023-12-21T16:33:49.214Z,96532.47
2023-12-21T16:35:52.358Z,96527.00
2023-12-21T16:37:55.500Z,96531.91
2023-12-21T16:39:58.724Z,96537.94
2023-12-21T16:42:01.832Z,96536.97
2023-12-21T16:44:06.124Z,96531.06
2023-12-21T16:46:10.418Z,96536.13
2023-12-21T16:48:14.610Z,96540.94
2023-12-21T16:50:19.655Z,96545.28
2023-12-21T16:52:22.757Z,96563.41
2023-12-21T16:54:26.408Z,96560.78
2023-12-21T16:56:29.532Z,96560.94
2023-12-21T16:58:32.570Z,96566.69
2023-12-21T17:00:36.938Z,96573.13
2023-12-21T17:02:40.042Z,96574.78
2023-12-21T17:04:43.343Z,96565.97
2023-12-21T17:06:46.450Z,96555.81
2023-12-21T17:08:49.604Z,96564.59
2023-12-21T17:10:52.729Z,96557.72
2023-12-21T17:12:58.061Z,96562.66
2023-12-21T17:15:01.167Z,96554.31
2023-12-21T17:17:05.974Z,96557.06
2023-12-21T17:19:09.485Z,96552.22
2023-12-21T17:21:12.614Z,96542.63
2023-12-21T17:23:17.168Z,96559.38
2023-12-21T17:25:21.651Z,96564.59
2023-12-21T17:27:24.579Z,96568.44
2023-12-21T17:29:27.592Z,96569.91
2023-12-21T17:31:30.810Z,96566.75
2023-12-21T17:33:35.185Z,96563.34
2023-12-21T17:35:38.351Z,96566.63
2023-12-21T17:37:41.494Z,96564.69
2023-12-21T17:39:44.995Z,96576.09
2023-12-21T17:41:50.399Z,96567.28
2023-12-21T17:43:54.645Z,96560.31
2023-12-21T17:46:00.605Z,96559.88
2023-12-21T17:48:04.388Z,96553.69
2023-12-21T17:50:10.643Z,96553.16
2023-12-21T17:52:14.007Z,96553.31
2023-12-21T17:54:19.824Z,96548.38
2023-12-21T17:56:23.011Z,96542.22
2023-12-21T17:58:26.132Z,96540.78
2023-12-21T18:00:29.192Z,96535.44
2023-12-21T18:02:32.229Z,96531.88
2023-12-21T18:04:34.439Z,96528.81
2023-12-21T18:06:38.892Z,96535.00
2023-12-21T18:08:42.205Z,96541.06
2023-12-21T18:10:46.300Z,96527.03
2023-12-21T18:12:49.483Z,96511.38
2023-12-21T18:14:52.532Z,96526.75
2023-12-21T18:16:55.633Z,96517.16
2023-12-21T18:18:59.739Z,96501.94
2023-12-21T18:21:02.979Z,96497.16
2023-12-21T18:23:07.512Z,96504.84
2023-12-21T18:25:09.848Z,96493.84
2023-12-21T18:27:13.647Z,96495.50
2023-12-21T18:29:16.708Z,96489.34
2023-12-21T18:31:19.719Z,96475.31
2023-12-21T18:33:22.709Z,96469.66
2023-12-21T18:35:25.852Z,96470.50
2023-12-21T18:37:28.877Z,96456.75
2023-12-21T18:39:33.234Z,96448.13
2023-12-21T18:41:36.613Z,96444.03
2023-12-21T18:43:40.236Z,96435.38
2023-12-21T18:45:45.096Z,96435.38
2023-12-21T18:47:50.064Z,96420.84
2023-12-21T18:49:53.355Z,96438.00
2023-12-21T18:51:56.359Z,96421.00
2023-12-21T18:53:59.575Z,96445.00
2023-12-21T18:56:10.126Z,96440.59
2023-12-21T18:58:13.186Z,96449.09
2023-12-21T19:00:17.128Z,96458.84
2023-12-21T19:02:20.290Z,96458.34
2023-12-21T19:04:23.513Z,96460.09
2023-12-21T19:06:26.529Z,96472.03
2023-12-21T19:08:29.631Z,96502.09
2023-12-21T19:10:32.585Z,96509.94
2023-12-21T19:12:36.987Z,96493.91
2023-12-21T19:14:40.665Z,96507.09
2023-12-21T19:16:45.143Z,96496.00
2023-12-21T19:18:51.127Z,96474.28
2023-12-21T19:20:54.318Z,96501.63
2023-12-21T19:22:57.498Z,96513.03
2023-12-21T19:25:00.505Z,96507.13
2023-12-21T19:27:03.624Z,96521.13
2023-12-21T19:29:06.979Z,96531.31
2023-12-21T19:31:10.980Z,96522.38
2023-12-21T19:33:14.918Z,96539.03
2023-12-21T19:35:18.024Z,96549.84
2023-12-21T19:37:22.286Z,96531.34
2023-12-21T19:39:25.347Z,96523.13
2023-12-21T19:41:28.840Z,96522.34
2023-12-21T19:43:33.288Z,96542.09
2023-12-21T19:45:37.768Z,96549.22
2023-12-21T19:47:40.945Z,96542.22
2023-12-21T19:49:43.965Z,96529.19
2023-12-21T19:51:45.987Z,96547.03
2023-12-21T19:53:48.988Z,96538.00
2023-12-21T19:55:51.071Z,96530.59
2023-12-21T19:57:54.176Z,96549.81
2023-12-21T19:59:57.178Z,96548.97
2023-12-21T20:02:02.326Z,96547.22
2023-12-21T20:04:05.467Z,96550.63
2023-12-21T20:06:08.718Z,96556.78
2023-12-21T20:08:11.831Z,96553.50
2023-12-21T20:10:15.562Z,96556.09
2023-12-21T20:12:20.898Z,96548.44
2023-12-21T20:14:23.892Z,96553.78
2023-12-21T20:16:27.016Z,96558.03
2023-12-21T20:18:31.462Z,96561.31
2023-12-21T20:20:33.950Z,96564.59
2023-12-21T20:22:37.076Z,96561.84
2023-12-21T20:24:40.299Z,96559.38
2023-12-21T20:26:43.370Z,96572.97
2023-12-21T20:28:46.617Z,96589.28
2023-12-21T20:30:50.447Z,96574.19
2023-12-21T20:32:53.016Z,96577.63
2023-12-21T20:34:57.662Z,96578.16
2023-12-21T20:37:01.118Z,96564.03
2023-12-21T20:39:04.477Z,96564.72
2023-12-21T20:41:07.691Z,96578.97
2023-12-21T20:43:10.881Z,96573.22
2023-12-21T20:45:13.324Z,96567.34
2023-12-21T20:47:16.582Z,96567.50
2023-12-21T20:49:19.932Z,96588.19
2023-12-21T20:51:23.463Z,96578.44
2023-12-21T20:53:26.700Z,96577.50
2023-12-21T20:55:29.915Z,96579.13
2023-12-21T20:57:32.191Z,96572.81
2023-12-21T20:59:37.521Z,96582.13
2023-12-21T21:01:43.164Z,96552.50
2023-12-21T21:03:46.529Z,96565.94
2023-12-21T21:05:50.291Z,96558.81
2023-12-21T21:07:55.293Z,96561.66
2023-12-21T21:09:58.665Z,96567.03
2023-12-21T21:12:02.207Z,96574.41
2023-12-21T21:14:06.843Z,96577.69
2023-12-21T21:16:10.154Z,96592.91
2023-12-21T21:18:13.410Z,96592.91
2023-12-21T21:20:16.850Z,96581.25
2023-12-21T21:22:20.408Z,96584.81
2023-12-21T21:24:25.166Z,96593.91
2023-12-21T21:26:27.545Z,96618.84
2023-12-21T21:28:30.783Z,96630.78
2023-12-21T21:30:55.935Z,96616.38
2023-12-21T21:32:57.097Z,96661.38
2023-12-21T21:34:59.380Z,96663.84
2023-12-21T21:37:02.544Z,96660.00
2023-12-21T21:39:05.806Z,96675.78
2023-12-21T21:41:16.430Z,96673.44
2023-12-21T21:43:19.986Z,96684.13
2023-12-21T21:45:23.471Z,96669.47
2023-12-21T21:47:26.986Z,96678.66
2023-12-21T21:49:30.366Z,96673.44
2023-12-21T21:51:36.951Z,96678.66
2023-12-21T21:53:40.185Z,96683.03
2023-12-21T21:55:46.592Z,96687.16
2023-12-21T21:57:51.458Z,96682.78
2023-12-21T21:59:54.711Z,96672.34
2023-12-21T22:01:57.014Z,96660.00
2023-12-21T22:04:00.414Z,96677.00
2023-12-21T22:06:03.958Z,96664.81
2023-12-21T22:08:07.836Z,96663.72
2023-12-21T22:10:11.021Z,96665.75
2023-12-21T22:12:14.416Z,96665.75
2023-12-21T22:14:20.021Z,96664.00
2023-12-21T22:16:23.354Z,96664.66
2023-12-21T22:18:26.779Z,96668.78
2023-12-21T22:20:29.970Z,96677.28
2023-12-21T22:22:33.313Z,96675.50
2023-12-21T22:24:36.494Z,96673.72
2023-12-21T22:26:39.596Z,96655.88
2023-12-21T22:28:42.822Z,96644.66
2023-12-21T22:30:47.506Z,96634.38
2023-12-21T22:32:50.778Z,96611.19
2023-12-21T22:34:54.267Z,96563.47
2023-12-21T22:36:57.654Z,96610.22
2023-12-21T22:38:59.819Z,96682.75
2023-12-21T22:41:03.259Z,96799.19
2023-12-21T22:43:06.447Z,96786.59
2023-12-21T22:45:10.916Z,96769.84
2023-12-21T22:47:15.443Z,96820.59
2023-12-21T22:49:18.715Z,96807.81
2023-12-21T22:51:21.053Z,96811.97
2023-12-21T22:53:24.402Z,96799.09
2023-12-21T22:55:27.582Z,96810.09
2023-12-21T22:57:30.906Z,96815.44
2023-12-21T22:59:34.091Z,96821.69
2023-12-21T23:01:36.368Z,96803.78
2023-12-21T23:03:41.173Z,96804.28
2023-12-21T23:05:43.468Z,96806.50
2023-12-21T23:07:48.156Z,96813.94
2023-12-21T23:09:50.891Z,96811.22
2023-12-21T23:11:54.156Z,96801.06
2023-12-21T23:13:56.452Z,96808.75
2023-12-21T23:16:01.192Z,96809.84
2023-12-21T23:18:04.739Z,96802.16
2023-12-21T23:20:10.203Z,96789.88
2023-12-21T23:22:12.655Z,96793.88
2023-12-21T23:24:15.966Z,96799.88
2023-12-21T23:26:19.967Z,96817.00
2023-12-21T23:28:24.348Z,96816.78
2023-12-21T23:30:28.315Z,96820.63
2023-12-21T23:32:31.940Z,96820.38
2023-12-21T23:34:35.242Z,96802.75
2023-12-21T23:36:42.904Z,96805.47
2023-12-21T23:38:46.569Z,96813.88
2023-12-21T23:40:49.762Z,96801.81
2023-12-21T23:42:52.371Z,96801.94
2023-12-21T23:44:55.756Z,96806.56
2023-12-21T23:46:58.967Z,96796.34
2023-12-21T23:49:02.229Z,96824.69
2023-12-21T23:51:05.636Z,96813.88
2023-12-21T23:53:11.456Z,96787.78
2023-12-21T23:55:14.743Z,96811.03
2023-12-21T23:57:17.909Z,96816.38
2023-12-21T23:59:21.033Z,96819.94
